CheckWX is a tool to help pilots better visualize weather data.  It is not intended as a substitute for an official pre-flight weather briefing.

06:58:44 UTC

KHOP TAF
Campbell AAF (Fort Campbell) Airport
Fort Campbell/Hopkinsville, Kentucky, USA
TAF KHOP 210000Z 2100/2206 18006KT 9999 FEW050 FEW150 QNH3012INS TEMPO 2115/2118 20010G15KT BECMG 2123/2124 20006KT 9999 FEW050 SCT140 QNH3013INS TX31/2119Z TN19/2112Z

Sep-21@
00:00 UTC

Sep-21 @ 00:00 UTC

Sep-21@
23:00 UTC

Sep-21 @ 23:00 UTC

TAF KHOP 210000Z 2100/2206 18006KT 9999 FEW050 FEW150 QNH3012INS
Wind
  • 180° at 6 KTS
Cloud Levels
  • Few at 5,000' AGL
  • Few at 15,000' AGL

Sep-21@
15:00 UTC

Sep-21 @ 15:00 UTC

Sep-21@
18:00 UTC

Sep-21 @ 18:00 UTC

TEMPO 2115/2118 20010G15KT

Temporary

Temporary Changes expected for less than half the time period

Wind
  • 200° at 10 KTS
  • {Gusting to 15 KTS

Sep-21@
23:00 UTC

Sep-21 @ 23:00 UTC

Sep-22@
06:00 UTC

Sep-22 @ 06:00 UTC

BECMG 2123/2124 20006KT 9999 FEW050 SCT140 QNH3013INS TX31/2119Z TN19/2112Z

Becoming

Becoming Conditions expected by Sun, Sep 22, 2019 @ 00:00 UTC

Wind
  • 200° at 6 KTS
Cloud Levels
  • Few at 5,000' AGL
  • Scattered at 14,000' AGL